Berlin, Germany
Current Conditions -  °F | °C
As of 2:50 AM on Wednesday 26 Nov 2014 (Local Time) from EDDT Reporting Station
Broken Clouds Broken Clouds  
Wind Chill: 37°   Ceiling: 2100
Heat Index: 41°   Visibility: 6mi
Dew Point: 37°   Wind: 6mph
Humidity: 87%   Direction: 80°E
Pressure: 30.3"   Gusts: NA
Location:  52.52°N, 13.41°E
Report Text: EDDT 260150Z 08005KT 9999 FEW007 BKN021 05/03 Q1026
Loading
Personal Weather Stations






























Interactive Weather Map New forecast layout! Learn more

10-Day Weather Forecast

Advertisements
Track Severe Weather on mobile